createdAt,value
2018-04-14T00:02:13.575Z,6.30
2018-04-14T00:04:41.883Z,6.30
2018-04-14T00:07:10.984Z,6.30
2018-04-14T00:09:39.185Z,6.30
2018-04-14T00:12:07.420Z,6.20
2018-04-14T00:14:35.717Z,6.20
2018-04-14T00:17:04.797Z,6.10
2018-04-14T00:19:33.041Z,6.10
2018-04-14T00:22:01.266Z,6.10
2018-04-14T00:24:29.546Z,6.10
2018-04-14T00:26:57.776Z,6.10
2018-04-14T00:29:26.830Z,6.10
2018-04-14T00:31:55.075Z,6.10
2018-04-14T00:34:23.259Z,6.10
2018-04-14T00:36:51.529Z,6.00
2018-04-14T00:39:19.743Z,6.00
2018-04-14T00:41:49.232Z,6.10
2018-04-14T00:44:17.469Z,6.20
2018-04-14T00:46:45.666Z,6.20
2018-04-14T00:49:13.954Z,6.20
2018-04-14T00:51:42.168Z,6.20
2018-04-14T00:54:10.374Z,6.20
2018-04-14T00:56:39.202Z,6.10
2018-04-14T00:59:08.008Z,6.00
2018-04-14T01:01:36.243Z,6.00
2018-04-14T01:04:05.177Z,5.90
2018-04-14T01:06:33.351Z,5.90
2018-04-14T01:09:01.537Z,5.80
2018-04-14T01:11:29.789Z,5.70
2018-04-14T01:13:57.984Z,5.70
2018-04-14T01:16:26.350Z,5.70
2018-04-14T01:18:54.676Z,5.70
2018-04-14T01:21:23.717Z,5.60
2018-04-14T01:23:52.888Z,5.50
2018-04-14T01:26:21.848Z,5.50
2018-04-14T01:28:50.917Z,5.60
2018-04-14T01:31:19.160Z,5.50
2018-04-14T01:33:47.373Z,5.60
2018-04-14T01:36:15.740Z,5.50
2018-04-14T01:38:44.718Z,5.50
2018-04-14T01:41:21.645Z,5.50
2018-04-14T01:43:49.943Z,5.40
2018-04-14T01:46:18.275Z,5.50
2018-04-14T01:48:46.509Z,5.50
2018-04-14T01:51:14.837Z,5.40
2018-04-14T01:53:43.073Z,5.40
2018-04-14T01:56:11.743Z,5.40
2018-04-14T01:58:40.201Z,5.40
2018-04-14T02:01:08.484Z,5.30
2018-04-14T02:03:36.735Z,5.20
2018-04-14T02:06:05.717Z,5.10
2018-04-14T02:08:34.917Z,5.00
2018-04-14T02:11:03.148Z,5.00
2018-04-14T02:13:31.452Z,5.00
2018-04-14T02:16:00.460Z,5.00
2018-04-14T02:18:28.723Z,4.90
2018-04-14T02:20:57.139Z,4.90
2018-04-14T02:23:25.524Z,4.90
2018-04-14T02:25:54.466Z,4.90
2018-04-14T02:28:22.764Z,4.80
2018-04-14T02:30:51.872Z,4.80
2018-04-14T02:33:20.136Z,4.80
2018-04-14T02:35:48.952Z,4.70
2018-04-14T02:38:17.226Z,4.60
2018-04-14T02:40:45.422Z,4.60
2018-04-14T02:43:13.682Z,4.50
2018-04-14T02:45:42.016Z,4.50
2018-04-14T02:48:11.057Z,4.50
2018-04-14T02:50:39.818Z,4.40
2018-04-14T02:53:09.180Z,4.50
2018-04-14T02:55:37.562Z,4.50
2018-04-14T02:58:05.782Z,4.50
2018-04-14T03:00:34.084Z,4.50
2018-04-14T03:03:02.374Z,4.40
2018-04-14T03:05:30.613Z,4.50
2018-04-14T03:07:58.799Z,4.40
2018-04-14T03:10:27.199Z,4.50
2018-04-14T03:12:55.401Z,4.50
2018-04-14T03:15:26.113Z,4.40
2018-04-14T03:17:54.389Z,4.50
2018-04-14T03:20:22.687Z,4.50
2018-04-14T03:22:51.827Z,4.50
2018-04-14T03:25:20.836Z,4.50
2018-04-14T03:27:49.969Z,4.50
2018-04-14T03:30:19.487Z,4.40
2018-04-14T03:32:47.774Z,4.40
2018-04-14T03:35:17.067Z,4.40
2018-04-14T03:37:45.249Z,4.50
2018-04-14T03:40:14.292Z,4.50
2018-04-14T03:42:43.625Z,4.50
2018-04-14T03:45:11.846Z,4.50
2018-04-14T03:47:40.898Z,4.50
2018-04-14T03:50:09.186Z,4.50
2018-04-14T03:52:37.448Z,4.60
2018-04-14T03:55:07.357Z,4.80
2018-04-14T03:57:35.640Z,4.80
2018-04-14T04:00:04.012Z,4.90
2018-04-14T04:02:32.299Z,4.90
2018-04-14T04:05:00.558Z,4.80
2018-04-14T04:07:28.758Z,4.80
2018-04-14T04:09:57.038Z,4.80
2018-04-14T04:12:25.406Z,4.70
2018-04-14T04:14:54.617Z,4.70
2018-04-14T04:17:22.896Z,4.70
2018-04-14T04:20:02.944Z,4.70
2018-04-14T04:22:43.054Z,4.80
2018-04-14T04:25:24.031Z,4.80
2018-04-14T04:27:52.352Z,4.80
2018-04-14T04:30:21.758Z,4.90
2018-04-14T04:32:49.958Z,4.90
2018-04-14T04:35:18.198Z,4.90
2018-04-14T04:37:46.583Z,5.00
2018-04-14T04:40:14.972Z,5.00
2018-04-14T04:42:43.438Z,4.90
2018-04-14T04:45:11.652Z,4.90
2018-04-14T04:47:41.725Z,4.80
2018-04-14T04:50:10.002Z,4.80
2018-04-14T04:52:38.252Z,4.80
2018-04-14T04:55:07.278Z,4.70
2018-04-14T04:57:35.791Z,4.70
2018-04-14T05:00:04.150Z,4.60
2018-04-14T05:02:32.428Z,4.60
2018-04-14T05:05:01.473Z,4.60
2018-04-14T05:07:29.688Z,4.50
2018-04-14T05:09:57.936Z,4.50
2018-04-14T05:12:26.194Z,4.50
2018-04-14T05:14:54.415Z,4.50
2018-04-14T05:17:22.703Z,4.60
2018-04-14T05:19:50.921Z,4.60
2018-04-14T05:22:19.313Z,4.60
2018-04-14T05:24:48.338Z,4.50
2018-04-14T05:27:16.608Z,4.40
2018-04-14T05:29:44.929Z,4.50
2018-04-14T05:32:13.142Z,4.50
2018-04-14T05:34:43.011Z,4.60
2018-04-14T05:37:11.235Z,4.60
2018-04-14T05:39:39.577Z,4.70
2018-04-14T05:42:07.822Z,4.70
2018-04-14T05:44:36.045Z,4.80
2018-04-14T05:47:04.265Z,4.90
2018-04-14T05:49:32.497Z,5.00
2018-04-14T05:52:01.545Z,5.20
2018-04-14T05:54:30.505Z,5.40
2018-04-14T05:56:59.697Z,5.50
2018-04-14T05:59:27.948Z,5.50
2018-04-14T06:01:56.828Z,5.50
2018-04-14T06:04:25.552Z,5.70
2018-04-14T06:06:53.774Z,5.80
2018-04-14T06:09:22.011Z,5.90
2018-04-14T06:11:50.224Z,6.00
2018-04-14T06:14:19.245Z,6.40
2018-04-14T06:16:47.471Z,6.30
2018-04-14T06:19:16.486Z,6.60
2018-04-14T06:21:44.788Z,6.50
2018-04-14T06:24:12.999Z,6.70
2018-04-14T06:26:41.276Z,6.80
2018-04-14T06:29:09.489Z,7.00
2018-04-14T06:31:38.535Z,7.30
2018-04-14T06:34:07.038Z,7.30
2018-04-14T06:36:35.289Z,7.50
2018-04-14T06:39:03.725Z,7.70
2018-04-14T06:41:32.153Z,7.80
2018-04-14T06:44:00.389Z,7.90
2018-04-14T06:46:29.041Z,8.10
2018-04-14T06:48:58.027Z,8.40
2018-04-14T06:51:26.333Z,8.40
2018-04-14T06:53:55.411Z,8.80
2018-04-14T06:56:24.427Z,9.00
2018-04-14T06:58:53.885Z,9.10
2018-04-14T07:01:22.257Z,9.20
2018-04-14T07:03:50.543Z,9.40
2018-04-14T07:06:19.241Z,9.50
2018-04-14T07:08:48.299Z,9.70
2018-04-14T07:11:17.221Z,9.70
2018-04-14T07:13:46.671Z,10.00
2018-04-14T07:16:16.283Z,10.10
2018-04-14T07:18:45.793Z,10.20
2018-04-14T07:21:14.833Z,10.40
2018-04-14T07:23:44.564Z,10.60
2018-04-14T07:26:13.091Z,10.60
2018-04-14T07:28:42.543Z,10.90
2018-04-14T07:31:10.865Z,10.90
2018-04-14T07:33:39.118Z,11.10
2018-04-14T07:36:07.490Z,11.10
2018-04-14T07:38:35.988Z,11.20
2018-04-14T07:41:05.252Z,11.20
2018-04-14T07:43:33.831Z,11.20
2018-04-14T07:46:02.142Z,11.30
2018-04-14T07:48:30.373Z,11.40
2018-04-14T07:50:58.608Z,11.60
2018-04-14T07:53:27.595Z,11.90
2018-04-14T07:55:55.886Z,12.10
2018-04-14T07:58:24.236Z,12.10
2018-04-14T08:00:54.248Z,12.50
2018-04-14T08:03:24.052Z,12.40
2018-04-14T08:05:53.356Z,12.70
2018-04-14T08:08:23.054Z,12.70
2018-04-14T08:10:51.372Z,12.70
2018-04-14T08:13:20.490Z,12.80
2018-04-14T08:15:49.560Z,13.00
2018-04-14T08:18:18.028Z,12.90
2018-04-14T08:20:46.347Z,13.10
2018-04-14T08:23:14.733Z,13.00
2018-04-14T08:25:43.776Z,13.10
2018-04-14T08:28:12.159Z,13.10
2018-04-14T08:30:40.541Z,13.00
2018-04-14T08:33:08.812Z,13.10
2018-04-14T08:35:37.091Z,13.30
2018-04-14T08:38:05.570Z,13.30
2018-04-14T08:40:34.258Z,13.50
2018-04-14T08:43:02.595Z,13.70
2018-04-14T08:45:31.592Z,13.60
2018-04-14T08:48:00.692Z,13.60
2018-04-14T08:50:28.973Z,13.60
2018-04-14T08:52:59.815Z,13.90
2018-04-14T08:55:28.228Z,13.90
2018-04-14T08:57:56.429Z,14.00
2018-04-14T09:00:25.537Z,14.20
2018-04-14T09:02:55.276Z,14.20
2018-04-14T09:05:23.610Z,14.20
2018-04-14T09:07:51.966Z,14.10
2018-04-14T09:10:21.072Z,14.10
2018-04-14T09:12:49.365Z,14.10
2018-04-14T09:15:18.571Z,14.10
2018-04-14T09:17:46.771Z,14.10
2018-04-14T09:20:15.311Z,14.40
2018-04-14T09:22:45.129Z,14.50
2018-04-14T09:25:13.492Z,14.50
2018-04-14T09:27:41.986Z,14.40
2018-04-14T09:30:10.261Z,14.20
2018-04-14T09:32:38.515Z,14.30
2018-04-14T09:35:06.769Z,14.40
2018-04-14T09:37:35.070Z,14.50
2018-04-14T09:40:03.474Z,14.90
2018-04-14T09:42:31.750Z,15.20
2018-04-14T09:44:59.942Z,15.40
2018-04-14T09:47:28.421Z,15.60
2018-04-14T09:49:56.627Z,15.70
2018-04-14T09:52:25.702Z,15.40
2018-04-14T09:54:54.010Z,15.40
2018-04-14T09:57:23.068Z,15.20
2018-04-14T09:59:52.079Z,15.00
2018-04-14T10:02:21.148Z,14.90
2018-04-14T10:04:49.458Z,15.20
2018-04-14T10:07:17.833Z,15.20
2018-04-14T10:09:46.032Z,15.10
2018-04-14T10:12:15.102Z,15.30
2018-04-14T10:14:43.320Z,15.20
2018-04-14T10:17:12.556Z,15.30
2018-04-14T10:19:40.846Z,15.40
2018-04-14T10:22:09.088Z,15.30
2018-04-14T10:24:37.404Z,15.30
2018-04-14T10:27:06.470Z,15.30
2018-04-14T10:29:34.718Z,15.30
2018-04-14T10:32:03.756Z,15.30
2018-04-14T10:34:32.144Z,15.30
2018-04-14T10:37:00.417Z,15.40
2018-04-14T10:39:28.665Z,15.70
2018-04-14T10:41:56.982Z,16.00
2018-04-14T10:44:26.071Z,16.70
2018-04-14T10:46:54.370Z,16.70
2018-04-14T10:49:23.474Z,17.10
2018-04-14T10:51:52.557Z,17.70
2018-04-14T10:54:20.963Z,17.70
2018-04-14T10:56:50.119Z,17.90
2018-04-14T10:59:18.952Z,17.90
2018-04-14T11:01:48.747Z,17.40
2018-04-14T11:04:17.130Z,17.40
2018-04-14T11:06:45.371Z,17.10
2018-04-14T11:09:13.884Z,16.80
2018-04-14T11:11:42.152Z,16.90
2018-04-14T11:14:10.374Z,16.70
2018-04-14T11:16:38.677Z,16.50
2018-04-14T11:19:06.900Z,16.50
2018-04-14T11:21:35.242Z,16.90
2018-04-14T11:24:03.635Z,17.10
2018-04-14T11:26:32.733Z,17.20
2018-04-14T11:29:01.321Z,17.10
2018-04-14T11:31:29.598Z,17.20
2018-04-14T11:33:57.986Z,17.40
2018-04-14T11:36:26.227Z,17.70
2018-04-14T11:38:54.492Z,17.80
2018-04-14T11:41:22.873Z,17.90
2018-04-14T11:43:51.887Z,18.60
2018-04-14T11:46:20.422Z,18.50
2018-04-14T11:48:50.143Z,18.70
2018-04-14T11:51:18.488Z,18.70
2018-04-14T11:53:46.884Z,18.70
2018-04-14T11:56:15.259Z,19.10
2018-04-14T11:58:43.624Z,19.50
2018-04-14T12:01:12.042Z,19.60
2018-04-14T12:03:40.313Z,20.30
2018-04-14T12:06:09.705Z,20.80
2018-04-14T12:08:37.958Z,20.80
2018-04-14T12:11:06.237Z,20.70
2018-04-14T12:13:34.621Z,20.20
2018-04-14T12:16:02.870Z,19.60
2018-04-14T12:18:31.180Z,19.90
2018-04-14T12:20:59.558Z,19.50
2018-04-14T12:23:27.809Z,19.20
2018-04-14T12:25:56.938Z,19.20
2018-04-14T12:28:25.544Z,19.30
2018-04-14T12:30:53.788Z,18.80
2018-04-14T12:33:22.151Z,18.10
2018-04-14T12:35:50.455Z,18.30
2018-04-14T12:38:18.747Z,18.80
2018-04-14T12:40:47.253Z,19.00
2018-04-14T12:43:15.599Z,18.90
2018-04-14T12:45:44.914Z,18.90
2018-04-14T12:48:13.257Z,18.90
2018-04-14T12:50:41.558Z,19.00
2018-04-14T12:53:09.838Z,19.10
2018-04-14T12:55:38.226Z,19.10
2018-04-14T12:58:06.698Z,18.70
2018-04-14T13:00:35.048Z,18.70
2018-04-14T13:03:03.445Z,18.70
2018-04-14T13:05:31.776Z,18.60
2018-04-14T13:08:00.807Z,17.70
2018-04-14T13:10:29.221Z,17.60
2018-04-14T13:12:57.494Z,17.60
2018-04-14T13:15:25.733Z,17.70
2018-04-14T13:17:54.765Z,17.80
2018-04-14T13:20:23.066Z,17.80
2018-04-14T13:22:51.347Z,17.90
2018-04-14T13:25:19.608Z,18.00
2018-04-14T13:27:47.806Z,17.90
2018-04-14T13:30:16.154Z,17.90
2018-04-14T13:32:44.569Z,18.10
2018-04-14T13:35:12.788Z,18.10
2018-04-14T13:37:41.108Z,18.20
2018-04-14T13:40:10.161Z,18.20
2018-04-14T13:42:38.480Z,18.20
2018-04-14T13:45:12.758Z,18.30
2018-04-14T13:47:41.615Z,18.40
2018-04-14T13:50:10.179Z,18.40
2018-04-14T13:52:39.498Z,18.30
2018-04-14T13:55:08.541Z,18.30
2018-04-14T13:57:36.969Z,18.30
2018-04-14T14:00:05.766Z,18.30
2018-04-14T14:02:34.067Z,18.20
2018-04-14T14:05:03.187Z,18.20
2018-04-14T14:07:31.459Z,18.10
2018-04-14T14:10:03.723Z,18.20
2018-04-14T14:12:32.936Z,18.20
2018-04-14T14:15:05.045Z,18.20
2018-04-14T14:17:36.736Z,18.40
2018-04-14T14:20:11.989Z,18.50
2018-04-14T14:22:40.555Z,18.40
2018-04-14T14:25:10.210Z,18.50
2018-04-14T14:27:38.582Z,18.50
2018-04-14T14:30:06.906Z,18.50
2018-04-14T14:32:35.327Z,18.20
2018-04-14T14:35:03.591Z,18.00
2018-04-14T14:37:32.825Z,18.10
2018-04-14T14:40:02.148Z,18.10
2018-04-14T14:42:31.399Z,17.80
2018-04-14T14:44:59.633Z,17.80
2018-04-14T14:47:44.323Z,17.80
2018-04-14T14:50:31.775Z,17.50
2018-04-14T14:53:04.501Z,17.70
2018-04-14T14:55:38.409Z,17.80
2018-04-14T14:58:13.573Z,17.80
2018-04-14T15:00:43.225Z,17.70
2018-04-14T15:03:28.153Z,17.70
2018-04-14T15:05:56.525Z,17.60
2018-04-14T15:08:25.357Z,17.70
2018-04-14T15:10:57.644Z,17.60
2018-04-14T15:13:26.561Z,17.50
2018-04-14T15:15:55.716Z,17.70
2018-04-14T15:18:24.735Z,17.70
2018-04-14T15:20:53.252Z,17.70
2018-04-14T15:23:21.726Z,17.80
2018-04-14T15:25:50.016Z,17.60
2018-04-14T15:28:19.047Z,17.40
2018-04-14T15:34:29.449Z,17.40
2018-04-14T15:36:57.696Z,17.40
2018-04-14T15:39:27.082Z,16.90
2018-04-14T15:41:55.423Z,16.90
2018-04-14T15:44:23.944Z,16.80
2018-04-14T15:46:53.310Z,16.70
2018-04-14T15:49:21.578Z,16.70
2018-04-14T15:51:51.690Z,16.50
2018-04-14T15:54:21.051Z,16.50
2018-04-14T15:56:49.303Z,16.50
2018-04-14T15:59:17.819Z,16.40
2018-04-14T16:01:47.627Z,16.40
2018-04-14T16:04:15.887Z,16.40
2018-04-14T16:06:44.166Z,16.40
2018-04-14T16:09:12.379Z,16.40
2018-04-14T16:11:42.157Z,16.10
2018-04-14T16:14:10.340Z,16.20
2018-04-14T16:16:38.751Z,16.20
2018-04-14T16:19:08.009Z,16.10
2018-04-14T16:21:37.023Z,16.00
2018-04-14T16:24:05.238Z,16.00
2018-04-14T16:26:34.397Z,16.00
2018-04-14T16:29:02.655Z,16.00
2018-04-14T16:31:30.865Z,15.90
2018-04-14T16:33:59.323Z,15.90
2018-04-14T16:36:27.610Z,15.90
2018-04-14T16:38:55.875Z,15.90
2018-04-14T16:41:24.158Z,15.70
2018-04-14T16:43:52.543Z,15.70
2018-04-14T16:46:20.785Z,15.50
2018-04-14T16:48:48.992Z,15.60
2018-04-14T16:51:17.371Z,15.40
2018-04-14T16:53:46.493Z,15.40
2018-04-14T16:56:15.500Z,15.40
2018-04-14T16:58:43.847Z,15.30
2018-04-14T17:01:12.048Z,15.20
2018-04-14T17:03:40.402Z,15.20
2018-04-14T17:06:08.644Z,15.20
2018-04-14T17:08:37.662Z,15.10
2018-04-14T17:11:05.976Z,15.00
2018-04-14T17:13:34.294Z,15.10
2018-04-14T17:16:02.712Z,15.00
2018-04-14T17:18:35.899Z,14.90
2018-04-14T17:21:04.363Z,14.90
2018-04-14T17:23:32.620Z,14.90
2018-04-14T17:26:01.618Z,14.80
2018-04-14T17:28:30.047Z,14.70
2018-04-14T17:30:58.310Z,14.60
2018-04-14T17:33:26.783Z,14.50
2018-04-14T17:35:55.204Z,14.40
2018-04-14T17:38:23.437Z,14.40
2018-04-14T17:40:52.010Z,14.40
2018-04-14T17:43:21.148Z,14.30
2018-04-14T17:45:50.656Z,14.30
2018-04-14T17:48:18.872Z,14.30
2018-04-14T17:50:47.409Z,14.30
2018-04-14T17:53:15.648Z,14.30
2018-04-14T17:55:43.890Z,14.30
2018-04-14T17:58:12.148Z,14.20
2018-04-14T18:00:40.500Z,14.20
2018-04-14T18:03:08.764Z,14.20
2018-04-14T18:05:37.820Z,14.10
2018-04-14T18:08:06.120Z,14.10
2018-04-14T18:10:35.216Z,14.00
2018-04-14T18:13:04.287Z,14.00
2018-04-14T18:15:32.581Z,13.90
2018-04-14T18:18:01.611Z,13.90
2018-04-14T18:20:29.825Z,13.80
2018-04-14T18:22:58.196Z,13.90
2018-04-14T18:25:26.505Z,13.80
2018-04-14T18:27:54.692Z,13.70
2018-04-14T18:30:23.746Z,13.70
2018-04-14T18:32:52.019Z,13.70
2018-04-14T18:35:20.326Z,13.60
2018-04-14T18:37:48.669Z,13.60
2018-04-14T18:40:17.542Z,13.60
2018-04-14T18:42:45.794Z,13.60
2018-04-14T18:45:14.120Z,13.60
2018-04-14T18:47:44.731Z,13.50
2018-04-14T18:50:12.963Z,13.50
2018-04-14T18:52:42.250Z,13.40
2018-04-14T18:55:10.609Z,13.40
2018-04-14T18:57:38.860Z,13.30
2018-04-14T19:00:07.861Z,13.20
2018-04-14T19:02:37.598Z,13.20
2018-04-14T19:05:06.531Z,13.10
2018-04-14T19:07:34.807Z,13.10
2018-04-14T19:10:03.045Z,13.00
2018-04-14T19:12:31.308Z,13.00
2018-04-14T19:14:59.608Z,12.90
2018-04-14T19:17:27.882Z,12.80
2018-04-14T19:19:56.156Z,12.80
2018-04-14T19:22:24.389Z,12.70
2018-04-14T19:24:53.454Z,12.70
2018-04-14T19:27:22.434Z,12.60
2018-04-14T19:29:50.663Z,12.60
2018-04-14T19:32:19.069Z,12.60
2018-04-14T19:34:47.357Z,12.50
2018-04-14T19:37:15.586Z,12.50
2018-04-14T19:39:43.803Z,12.50
2018-04-14T19:42:12.663Z,12.50
2018-04-14T19:44:42.330Z,12.50
2018-04-14T19:47:10.608Z,12.50
2018-04-14T19:49:39.086Z,12.50
2018-04-14T19:52:07.497Z,12.60
2018-04-14T19:54:37.396Z,12.50
2018-04-14T19:57:05.711Z,12.50
2018-04-14T19:59:34.135Z,12.50
2018-04-14T20:02:02.426Z,12.50
2018-04-14T20:04:30.640Z,12.40
2018-04-14T20:07:02.092Z,12.40
2018-04-14T20:09:30.350Z,12.30
2018-04-14T20:11:58.662Z,12.30
2018-04-14T20:14:27.772Z,12.10
2018-04-14T20:16:56.263Z,12.10
2018-04-14T20:19:24.491Z,12.10
2018-04-14T20:21:52.755Z,12.20
2018-04-14T20:24:21.018Z,12.20
2018-04-14T20:26:49.303Z,12.20
2018-04-14T20:29:17.637Z,12.10
2018-04-14T20:31:45.929Z,12.10
2018-04-14T20:34:15.410Z,12.10
2018-04-14T20:36:44.662Z,12.10
2018-04-14T20:39:13.785Z,12.00
2018-04-14T20:41:42.003Z,12.00
2018-04-14T20:44:11.005Z,12.00
2018-04-14T20:46:39.576Z,12.00
2018-04-14T20:49:07.869Z,11.90
2018-04-14T20:51:36.153Z,11.90
2018-04-14T20:54:04.551Z,11.90
2018-04-14T20:56:32.889Z,11.90
2018-04-14T20:59:01.968Z,11.70
2018-04-14T21:01:30.979Z,11.70
2018-04-14T21:03:59.550Z,11.60
2018-04-14T21:06:27.724Z,11.60
2018-04-14T21:08:56.813Z,11.60
2018-04-14T21:11:25.896Z,11.60
2018-04-14T21:13:54.108Z,11.60
2018-04-14T21:16:23.253Z,11.50
2018-04-14T21:18:51.570Z,11.50
2018-04-14T21:21:19.949Z,11.50
2018-04-14T21:23:48.987Z,11.40
2018-04-14T21:26:17.471Z,11.40
2018-04-14T21:28:45.747Z,11.40
2018-04-14T21:31:14.365Z,11.40
2018-04-14T21:33:42.676Z,11.40
2018-04-14T21:36:12.651Z,11.40
2018-04-14T21:38:41.033Z,11.40
2018-04-14T21:41:09.280Z,11.40
2018-04-14T21:43:38.321Z,11.50
2018-04-14T21:46:06.692Z,11.40
2018-04-14T21:48:35.073Z,11.50
2018-04-14T21:51:03.521Z,11.40
2018-04-14T21:53:31.971Z,11.40
2018-04-14T21:56:00.171Z,11.50
2018-04-14T21:58:29.126Z,11.40
2018-04-14T22:00:57.374Z,11.40
2018-04-14T22:03:25.760Z,11.40
2018-04-14T22:05:54.888Z,11.30
2018-04-14T22:08:23.089Z,11.30
2018-04-14T22:10:51.357Z,11.30
2018-04-14T22:13:19.625Z,11.30
2018-04-14T22:15:48.687Z,11.30
2018-04-14T22:18:17.171Z,11.20
2018-04-14T22:20:46.263Z,11.20
2018-04-14T22:23:14.471Z,11.20
2018-04-14T22:25:42.693Z,11.20
2018-04-14T22:28:11.258Z,11.20
2018-04-14T22:30:40.292Z,11.20
2018-04-14T22:33:08.700Z,11.20
2018-04-14T22:35:36.976Z,11.10
2018-04-14T22:38:05.334Z,11.10
2018-04-14T22:40:33.611Z,11.10
2018-04-14T22:43:01.870Z,11.00
2018-04-14T22:45:30.135Z,11.00
2018-04-14T22:47:59.082Z,11.00
2018-04-14T22:50:27.356Z,11.00
2018-04-14T22:52:55.595Z,11.00
2018-04-14T22:55:23.826Z,11.00
2018-04-14T22:57:52.069Z,11.00
2018-04-14T23:00:20.406Z,11.00
2018-04-14T23:02:49.553Z,11.00
2018-04-14T23:05:18.849Z,11.00
2018-04-14T23:07:47.112Z,11.00
2018-04-14T23:10:15.712Z,11.00
2018-04-14T23:12:44.103Z,11.00
2018-04-14T23:15:12.330Z,11.00
2018-04-14T23:17:40.576Z,11.00
2018-04-14T23:20:09.632Z,11.00
2018-04-14T23:22:37.923Z,11.10
2018-04-14T23:25:06.722Z,11.00
2018-04-14T23:27:35.441Z,11.00
2018-04-14T23:30:03.693Z,11.00
2018-04-14T23:32:32.277Z,11.00
2018-04-14T23:35:01.282Z,11.00
2018-04-14T23:37:30.271Z,11.00
2018-04-14T23:39:58.814Z,11.00
2018-04-14T23:42:27.045Z,11.10
2018-04-14T23:44:56.118Z,11.10
2018-04-14T23:47:25.518Z,11.10
2018-04-14T23:49:53.799Z,11.20
2018-04-14T23:52:22.177Z,11.10
2018-04-14T23:54:50.394Z,11.20
2018-04-14T23:57:18.722Z,11.20
2018-04-14T23:59:47.138Z,11.20
